HTPE/PMA METAR and TAF weather

Enter ICAO airport designator
Station Type Date Time Source
HTPE METAR 2020/05/26 02:00 UTC NOAA

HTPE 260200Z 00000KT 9999 SCT012 FEW014CB BKN080 25/23 Q1014


Station Type Date Time Source
HTPE Decoded METAR 2020/05/26 02:00 UTC NOAA

Pemba / Karume Airport, Tanzania (HTPE) 05-15S 039-49E
May 25, 2020 - 10:00 PM EDT / 2020.05.26 0200 UTC
Wind: Calm:0
Visibility: greater than 7 mile(s):0
Sky conditions: mostly cloudy
Weather: Cumulonimbus clouds observed
Temperature: 77 F (25 C)
Dew Point: 73 F (23 C)
Relative Humidity: 88%
Pressure (altimeter): 29.94 in. Hg (1014 hPa)
ob: HTPE 260200Z 00000KT 9999 SCT012 FEW014CB BKN080 25/23 Q1014
cycle: 2

Station Type Date Time Source
HTPE TAF 2012/09/13 12:46 UTC NOAA

TAF HTPE 131000Z 1312/1412 16010KT 9999 SHRA SCT024 BKN080
BECMG 1315/1318 SCT021
BECMG 1321/1324 12005KT FEW019
BECMG 1403/1406 17005KT SCT018
BECMG 1409/1412 15010KT 9999 FEW024

Example: see airport list